createdAt,value
2022-11-24T00:01:27.797Z,7.63
2022-11-24T00:04:03.149Z,7.65
2022-11-24T00:06:31.275Z,7.65
2022-11-24T00:08:58.321Z,7.65
2022-11-24T00:11:27.590Z,7.63
2022-11-24T00:13:54.764Z,7.63
2022-11-24T00:16:35.641Z,7.65
2022-11-24T00:19:08.008Z,7.63
2022-11-24T00:21:35.277Z,7.60
2022-11-24T00:24:02.264Z,7.61
2022-11-24T00:26:33.092Z,7.60
2022-11-24T00:29:02.473Z,7.63
2022-11-24T00:31:30.739Z,7.62
2022-11-24T00:34:00.599Z,7.62
2022-11-24T00:36:29.481Z,7.63
2022-11-24T00:39:05.327Z,7.64
2022-11-24T00:41:32.458Z,7.62
2022-11-24T00:43:59.938Z,7.63
2022-11-24T00:46:27.951Z,7.60
2022-11-24T00:48:55.016Z,7.64
2022-11-24T00:51:23.792Z,7.64
2022-11-24T00:53:50.408Z,7.64
2022-11-24T00:56:16.882Z,7.58
2022-11-24T00:58:43.425Z,7.64
2022-11-24T01:01:14.492Z,7.65
2022-11-24T01:03:42.516Z,7.66
2022-11-24T01:06:18.307Z,7.68
2022-11-24T01:08:45.188Z,7.68
2022-11-24T01:11:17.043Z,7.68
2022-11-24T01:13:45.876Z,7.62
2022-11-24T01:16:24.660Z,7.69
2022-11-24T01:18:51.535Z,7.65
2022-11-24T01:21:18.843Z,7.69
2022-11-24T01:23:45.375Z,7.68
2022-11-24T01:26:16.089Z,7.70
2022-11-24T01:28:47.200Z,7.68
2022-11-24T01:31:14.713Z,7.71
2022-11-24T01:33:41.307Z,7.66
2022-11-24T01:36:07.940Z,7.71
2022-11-24T01:38:34.730Z,7.71
2022-11-24T01:41:17.617Z,7.73
2022-11-24T01:43:45.399Z,7.71
2022-11-24T01:46:22.579Z,7.71
2022-11-24T01:48:58.208Z,7.72
2022-11-24T01:51:28.582Z,7.71
2022-11-24T01:54:00.587Z,7.72
2022-11-24T01:56:28.610Z,7.72
2022-11-24T01:58:59.054Z,7.73
2022-11-24T02:01:25.760Z,7.72
2022-11-24T02:03:52.787Z,7.73
2022-11-24T02:06:27.977Z,7.74
2022-11-24T02:09:03.487Z,7.77
2022-11-24T02:11:37.003Z,7.76
2022-11-24T02:14:06.062Z,7.73
2022-11-24T02:16:35.625Z,7.75
2022-11-24T02:19:08.089Z,7.73
2022-11-24T02:21:34.716Z,7.72
2022-11-24T02:24:16.089Z,7.72
2022-11-24T02:26:45.971Z,7.70
2022-11-24T02:29:14.234Z,7.66
2022-11-24T02:31:59.304Z,7.57
2022-11-24T02:34:25.864Z,7.56
2022-11-24T02:36:52.479Z,7.50
2022-11-24T02:39:19.156Z,7.42
2022-11-24T02:42:00.306Z,7.34
2022-11-24T02:44:33.058Z,7.22
2022-11-24T02:47:07.521Z,7.22
2022-11-24T02:49:34.088Z,7.13
2022-11-24T02:52:01.036Z,7.07
2022-11-24T02:54:27.724Z,7.02
2022-11-24T02:56:54.669Z,6.97
2022-11-24T02:59:21.563Z,6.96
2022-11-24T03:01:48.148Z,6.95
2022-11-24T03:04:14.764Z,6.92
2022-11-24T03:06:41.312Z,6.96
2022-11-24T03:09:07.837Z,6.98
2022-11-24T03:11:34.370Z,6.95
2022-11-24T03:14:01.773Z,6.93
2022-11-24T03:16:28.287Z,6.88
2022-11-24T03:18:54.936Z,6.87
2022-11-24T03:21:21.754Z,6.82
2022-11-24T03:23:52.695Z,6.80
2022-11-24T03:26:21.648Z,6.81
2022-11-24T03:28:48.318Z,6.81
2022-11-24T03:31:15.283Z,6.84
2022-11-24T03:33:44.998Z,6.78
2022-11-24T03:36:11.587Z,6.92
2022-11-24T03:38:38.128Z,6.94
2022-11-24T03:41:04.837Z,6.97
2022-11-24T03:43:31.825Z,7.07
2022-11-24T03:45:58.480Z,7.15
2022-11-24T03:48:25.149Z,7.13
2022-11-24T03:50:59.864Z,7.27
2022-11-24T03:53:28.756Z,7.33
2022-11-24T03:55:55.442Z,7.39
2022-11-24T03:58:22.352Z,7.41
2022-11-24T04:00:50.229Z,7.49
2022-11-24T04:03:16.781Z,7.54
2022-11-24T04:05:43.299Z,7.59
2022-11-24T04:08:09.808Z,7.63
2022-11-24T04:10:38.094Z,7.69
2022-11-24T04:13:10.572Z,7.73
2022-11-24T04:15:40.297Z,7.76
2022-11-24T04:18:07.339Z,7.70
2022-11-24T04:20:34.230Z,7.82
2022-11-24T04:23:00.823Z,7.85
2022-11-24T04:25:27.894Z,7.87
2022-11-24T04:27:56.340Z,7.91
2022-11-24T04:30:24.565Z,7.93
2022-11-24T04:32:51.356Z,7.95
2022-11-24T04:35:18.632Z,7.98
2022-11-24T04:37:45.537Z,8.01
2022-11-24T04:40:13.159Z,8.04
2022-11-24T04:42:39.642Z,8.06
2022-11-24T04:45:07.173Z,8.08
2022-11-24T04:47:34.531Z,8.10
2022-11-24T04:50:01.105Z,8.12
2022-11-24T04:52:27.598Z,8.15
2022-11-24T04:54:54.056Z,8.16
2022-11-24T04:57:23.847Z,8.18
2022-11-24T04:59:51.539Z,8.20
2022-11-24T05:02:18.791Z,8.22
2022-11-24T05:04:46.208Z,8.23
2022-11-24T05:07:18.878Z,8.25
2022-11-24T05:10:05.659Z,8.26
2022-11-24T05:12:32.263Z,8.27
2022-11-24T05:14:59.730Z,8.22
2022-11-24T05:17:30.710Z,8.32
2022-11-24T05:19:57.878Z,8.32
2022-11-24T05:22:24.683Z,8.33
2022-11-24T05:24:51.310Z,8.34
2022-11-24T05:27:17.726Z,8.35
2022-11-24T05:29:44.302Z,8.36
2022-11-24T05:32:10.766Z,8.38
2022-11-24T05:34:37.557Z,8.39
2022-11-24T05:37:04.131Z,8.39
2022-11-24T05:39:36.647Z,8.41
2022-11-24T05:42:25.867Z,8.41
2022-11-24T05:44:53.154Z,8.41
2022-11-24T05:47:20.332Z,8.42
2022-11-24T05:49:46.993Z,8.34
2022-11-24T05:52:14.369Z,8.43
2022-11-24T05:54:40.798Z,8.45
2022-11-24T05:57:07.591Z,8.48
2022-11-24T05:59:35.245Z,8.48
2022-11-24T06:02:01.850Z,8.47
2022-11-24T06:04:28.474Z,8.49
2022-11-24T06:06:54.892Z,8.41
2022-11-24T06:09:21.402Z,8.49
2022-11-24T06:11:48.449Z,8.47
2022-11-24T06:14:14.876Z,8.44
2022-11-24T06:16:41.369Z,8.44
2022-11-24T06:19:09.917Z,8.42
2022-11-24T06:21:36.549Z,8.32
2022-11-24T06:24:03.025Z,8.42
2022-11-24T06:26:29.548Z,8.40
2022-11-24T06:28:56.194Z,8.36
2022-11-24T06:31:23.121Z,8.31
2022-11-24T06:33:49.646Z,8.21
2022-11-24T06:36:16.492Z,8.15
2022-11-24T06:38:43.014Z,8.06
2022-11-24T06:41:15.733Z,7.98
2022-11-24T06:43:45.873Z,7.84
2022-11-24T06:46:13.236Z,7.77
2022-11-24T06:48:39.739Z,7.67
2022-11-24T06:51:08.583Z,7.53
2022-11-24T06:53:38.020Z,7.49
2022-11-24T06:56:12.100Z,7.43
2022-11-24T06:58:42.708Z,7.33
2022-11-24T07:01:09.164Z,7.25
2022-11-24T07:03:35.655Z,7.18
2022-11-24T07:06:02.136Z,7.11
2022-11-24T07:08:28.722Z,7.03
2022-11-24T07:10:55.134Z,7.03
2022-11-24T07:13:21.962Z,7.01
2022-11-24T07:15:48.439Z,6.91
2022-11-24T07:18:14.814Z,6.96
2022-11-24T07:20:41.344Z,6.94
2022-11-24T07:23:07.810Z,6.90
2022-11-24T07:25:34.263Z,6.86
2022-11-24T07:28:01.098Z,6.84
2022-11-24T07:30:28.326Z,6.75
2022-11-24T07:33:03.980Z,6.75
2022-11-24T07:35:30.777Z,6.68
2022-11-24T07:37:58.791Z,6.63
2022-11-24T07:40:26.895Z,6.59
2022-11-24T07:42:54.055Z,6.53
2022-11-24T07:45:20.974Z,6.55
2022-11-24T07:47:47.473Z,6.52
2022-11-24T07:50:14.169Z,6.51
2022-11-24T07:52:40.911Z,6.51
2022-11-24T07:55:08.085Z,6.50
2022-11-24T07:57:35.278Z,6.50
2022-11-24T08:00:02.079Z,6.49
2022-11-24T08:02:28.650Z,6.55
2022-11-24T08:04:55.210Z,6.56
2022-11-24T08:07:21.637Z,6.67
2022-11-24T08:09:50.346Z,6.76
2022-11-24T08:12:21.401Z,6.83
2022-11-24T08:14:51.037Z,6.93
2022-11-24T08:17:18.150Z,7.03
2022-11-24T08:19:45.235Z,7.14
2022-11-24T08:22:11.798Z,7.22
2022-11-24T08:24:38.561Z,7.33
2022-11-24T08:27:05.170Z,7.46
2022-11-24T08:29:32.869Z,7.55
2022-11-24T08:31:59.385Z,7.66
2022-11-24T08:34:28.647Z,7.75
2022-11-24T08:36:55.090Z,7.88
2022-11-24T08:39:21.502Z,8.00
2022-11-24T08:41:47.939Z,8.10
2022-11-24T08:44:18.073Z,8.20
2022-11-24T08:46:45.192Z,8.31
2022-11-24T08:49:13.540Z,8.45
2022-11-24T08:51:40.114Z,8.58
2022-11-24T08:54:06.813Z,8.69
2022-11-24T08:56:33.878Z,8.79
2022-11-24T08:59:00.857Z,8.92
2022-11-24T09:01:28.540Z,9.03
2022-11-24T09:03:55.572Z,9.12
2022-11-24T09:06:25.049Z,9.25
2022-11-24T09:08:53.772Z,9.34
2022-11-24T09:11:20.338Z,9.37
2022-11-24T09:13:46.758Z,9.52
2022-11-24T09:16:19.343Z,9.64
2022-11-24T09:18:46.713Z,9.68
2022-11-24T09:21:16.251Z,9.84
2022-11-24T09:23:44.515Z,9.90
2022-11-24T09:26:19.716Z,10.00
2022-11-24T09:28:47.032Z,10.07
2022-11-24T09:31:15.530Z,10.12
2022-11-24T09:33:42.898Z,10.19
2022-11-24T09:36:09.996Z,10.30
2022-11-24T09:38:37.052Z,10.37
2022-11-24T09:41:40.844Z,10.46
2022-11-24T09:44:24.127Z,10.48
2022-11-24T09:47:13.193Z,10.57
2022-11-24T09:49:58.718Z,10.62
2022-11-24T09:52:46.420Z,10.68
2022-11-24T09:55:34.757Z,10.73
2022-11-24T09:58:27.573Z,10.76
2022-11-24T10:00:56.239Z,10.73
2022-11-24T10:03:50.538Z,10.81
2022-11-24T10:06:19.576Z,10.78
2022-11-24T10:09:10.612Z,10.82
2022-11-24T10:11:50.396Z,10.90
2022-11-24T10:14:33.584Z,10.98
2022-11-24T10:17:13.967Z,11.09
2022-11-24T10:19:49.659Z,11.19
2022-11-24T10:22:34.603Z,11.33
2022-11-24T10:25:22.272Z,11.49
2022-11-24T10:28:17.855Z,11.58
2022-11-24T10:30:44.597Z,11.58
2022-11-24T10:33:28.710Z,11.67
2022-11-24T10:36:20.177Z,11.71
2022-11-24T10:39:02.809Z,11.74
2022-11-24T10:41:49.528Z,11.82
2022-11-24T10:44:16.178Z,11.80
2022-11-24T10:46:42.910Z,11.80
2022-11-24T10:49:18.803Z,11.71
2022-11-24T10:52:01.275Z,11.90
2022-11-24T10:54:28.070Z,11.91
2022-11-24T10:56:55.365Z,11.97
2022-11-24T10:59:24.781Z,12.06
2022-11-24T11:01:52.952Z,12.14
2022-11-24T11:04:33.143Z,12.17
2022-11-24T11:07:14.599Z,12.23
2022-11-24T11:09:41.242Z,12.12
2022-11-24T11:12:46.355Z,12.25
2022-11-24T11:15:24.700Z,12.23
2022-11-24T11:17:54.459Z,12.25
2022-11-24T11:20:35.041Z,12.34
2022-11-24T11:23:14.446Z,12.35
2022-11-24T11:25:41.270Z,12.33
2022-11-24T11:28:28.205Z,12.40
2022-11-24T11:31:22.424Z,12.37
2022-11-24T11:34:25.042Z,12.41
2022-11-24T11:36:59.844Z,12.30
2022-11-24T11:39:41.385Z,12.32
2022-11-24T11:45:50.976Z,12.26
2022-11-24T11:48:42.751Z,12.24
2022-11-24T11:51:42.450Z,12.25
2022-11-24T11:54:38.106Z,12.22
2022-11-24T11:57:11.652Z,12.23
2022-11-24T11:59:53.281Z,12.26
2022-11-24T12:02:28.885Z,12.27
2022-11-24T12:04:55.345Z,12.23
2022-11-24T12:07:27.868Z,12.26
2022-11-24T12:10:09.473Z,12.28
2022-11-24T12:12:57.400Z,12.30
2022-11-24T12:15:30.023Z,12.30
2022-11-24T12:18:55.743Z,12.33
2022-11-24T12:21:26.587Z,12.27
2022-11-24T12:24:36.610Z,12.42
2022-11-24T12:27:26.313Z,12.46
2022-11-24T12:30:09.576Z,12.49
2022-11-24T12:33:04.938Z,12.59
2022-11-24T12:35:47.726Z,12.66
2022-11-24T12:38:50.291Z,12.73
2022-11-24T12:41:42.666Z,12.80
2022-11-24T12:44:32.863Z,12.85
2022-11-24T12:47:22.867Z,12.85
2022-11-24T12:49:51.981Z,12.81
2022-11-24T12:52:23.180Z,12.77
2022-11-24T12:54:49.713Z,12.70
2022-11-24T12:57:36.394Z,12.77
2022-11-24T13:00:15.546Z,12.76
2022-11-24T13:02:57.534Z,12.74
2022-11-24T13:05:37.254Z,12.71
2022-11-24T13:08:05.263Z,12.71
2022-11-24T13:13:26.381Z,12.67
2022-11-24T13:16:07.057Z,12.67
2022-11-24T13:19:08.591Z,12.69
2022-11-24T13:21:41.401Z,12.65
2022-11-24T13:24:17.656Z,12.65
2022-11-24T13:26:51.264Z,12.55
2022-11-24T13:29:37.386Z,12.56
2022-11-24T13:32:06.579Z,12.59
2022-11-24T13:34:39.299Z,12.60
2022-11-24T13:37:34.896Z,12.60
2022-11-24T13:40:22.692Z,12.55
2022-11-24T13:42:55.216Z,12.52
2022-11-24T13:45:41.493Z,12.53
2022-11-24T13:48:20.342Z,12.50
2022-11-24T13:50:49.910Z,12.46
2022-11-24T13:53:43.918Z,12.46
2022-11-24T13:56:13.483Z,12.41
2022-11-24T13:58:43.494Z,12.35
2022-11-24T14:01:28.398Z,12.38
2022-11-24T14:07:09.381Z,12.39
2022-11-24T14:09:47.980Z,12.38
2022-11-24T14:12:22.214Z,12.38
2022-11-24T14:14:51.120Z,12.33
2022-11-24T14:17:23.777Z,12.33
2022-11-24T14:19:53.349Z,12.32
2022-11-24T14:22:21.541Z,12.33
2022-11-24T14:24:55.673Z,12.33
2022-11-24T14:27:29.146Z,12.28
2022-11-24T14:30:01.803Z,12.31
2022-11-24T14:32:28.895Z,12.18
2022-11-24T14:34:56.803Z,12.22
2022-11-24T14:37:23.498Z,12.22
2022-11-24T14:39:49.948Z,12.23
2022-11-24T14:42:25.278Z,12.19
2022-11-24T14:45:00.376Z,12.19
2022-11-24T14:47:38.886Z,12.19
2022-11-24T14:50:15.332Z,12.20
2022-11-24T14:52:56.402Z,12.21
2022-11-24T14:55:25.588Z,12.18
2022-11-24T14:57:52.122Z,12.16
2022-11-24T15:00:27.617Z,12.15
2022-11-24T15:02:55.261Z,12.13
2022-11-24T15:05:25.458Z,12.13
2022-11-24T15:07:59.597Z,12.25
2022-11-24T15:10:35.137Z,12.14
2022-11-24T15:13:05.333Z,12.08
2022-11-24T15:15:58.983Z,12.05
2022-11-24T15:18:37.838Z,12.08
2022-11-24T15:21:04.466Z,12.04
2022-11-24T15:23:32.598Z,12.04
2022-11-24T15:26:02.122Z,12.06
2022-11-24T15:28:30.199Z,12.05
2022-11-24T15:31:01.329Z,12.04
2022-11-24T15:33:28.692Z,12.01
2022-11-24T15:35:55.227Z,12.02
2022-11-24T15:38:22.679Z,12.03
2022-11-24T15:40:51.861Z,12.01
2022-11-24T15:43:21.279Z,12.01
2022-11-24T15:45:47.751Z,12.00
2022-11-24T15:48:17.895Z,11.98
2022-11-24T15:50:46.221Z,11.95
2022-11-24T15:53:20.340Z,11.97
2022-11-24T15:55:47.427Z,11.87
2022-11-24T15:58:14.697Z,11.89
2022-11-24T16:00:41.825Z,11.87
2022-11-24T16:03:44.344Z,11.82
2022-11-24T16:05:57.037Z,11.77
2022-11-24T16:08:23.533Z,11.70
2022-11-24T16:10:50.018Z,11.62
2022-11-24T16:13:16.528Z,11.49
2022-11-24T16:15:42.981Z,11.37
2022-11-24T16:18:09.510Z,11.17
2022-11-24T16:20:36.137Z,11.06
2022-11-24T16:23:04.084Z,10.89
2022-11-24T16:25:30.735Z,10.66
2022-11-24T16:27:57.600Z,10.55
2022-11-24T16:30:24.030Z,10.38
2022-11-24T16:32:50.444Z,10.19
2022-11-24T16:35:17.059Z,10.07
2022-11-24T16:37:43.553Z,9.93
2022-11-24T16:40:10.439Z,9.79
2022-11-24T16:42:36.913Z,9.65
2022-11-24T16:45:04.101Z,9.48
2022-11-24T16:47:30.546Z,9.41
2022-11-24T16:49:57.102Z,9.26
2022-11-24T16:52:23.681Z,9.14
2022-11-24T16:54:50.228Z,9.08
2022-11-24T16:57:16.730Z,8.99
2022-11-24T16:59:43.489Z,8.89
2022-11-24T17:02:12.360Z,8.73
2022-11-24T17:04:39.135Z,8.67
2022-11-24T17:07:05.592Z,8.61
2022-11-24T17:09:37.385Z,8.53
2022-11-24T17:12:06.767Z,8.48
2022-11-24T17:14:33.461Z,8.40
2022-11-24T17:17:00.219Z,8.33
2022-11-24T17:19:27.272Z,8.26
2022-11-24T17:21:54.523Z,8.19
2022-11-24T17:24:20.974Z,8.19
2022-11-24T17:26:50.006Z,8.09
2022-11-24T17:29:16.416Z,8.06
2022-11-24T17:31:42.880Z,8.02
2022-11-24T17:34:11.414Z,8.07
2022-11-24T17:36:38.680Z,8.08
2022-11-24T17:39:07.079Z,8.06
2022-11-24T17:41:34.144Z,8.07
2022-11-24T17:44:00.691Z,8.07
2022-11-24T17:46:28.831Z,8.05
2022-11-24T17:48:55.771Z,8.02
2022-11-24T17:51:24.540Z,8.06
2022-11-24T17:53:52.695Z,8.05
2022-11-24T17:56:23.335Z,8.02
2022-11-24T17:58:54.402Z,8.04
2022-11-24T18:01:21.965Z,8.03
2022-11-24T18:03:53.209Z,8.00
2022-11-24T18:06:20.597Z,7.98
2022-11-24T18:08:47.630Z,7.99
2022-11-24T18:11:19.816Z,8.03
2022-11-24T18:13:58.446Z,8.05
2022-11-24T18:16:28.189Z,8.07
2022-11-24T18:19:07.838Z,8.10
2022-11-24T18:21:39.391Z,8.12
2022-11-24T18:24:06.982Z,8.12
2022-11-24T18:26:33.487Z,8.08
2022-11-24T18:28:59.939Z,8.17
2022-11-24T18:31:26.530Z,8.15
2022-11-24T18:33:53.094Z,8.16
2022-11-24T18:36:23.556Z,8.20
2022-11-24T18:38:53.845Z,8.22
2022-11-24T18:41:21.534Z,8.18
2022-11-24T18:43:48.026Z,8.23
2022-11-24T18:46:17.093Z,8.23
2022-11-24T18:48:44.872Z,8.21
2022-11-24T18:51:14.958Z,8.13
2022-11-24T18:53:42.487Z,8.13
2022-11-24T18:56:13.576Z,8.20
2022-11-24T18:58:40.027Z,8.12
2022-11-24T19:01:16.504Z,8.17
2022-11-24T19:03:49.346Z,8.10
2022-11-24T19:06:21.260Z,8.12
2022-11-24T19:08:48.954Z,8.06
2022-11-24T19:11:21.220Z,8.10
2022-11-24T19:13:49.052Z,8.00
2022-11-24T19:16:17.312Z,8.00
2022-11-24T19:18:47.515Z,8.05
2022-11-24T19:21:17.885Z,8.04
2022-11-24T19:23:44.647Z,8.05
2022-11-24T19:26:11.358Z,8.04
2022-11-24T19:28:37.747Z,8.07
2022-11-24T19:31:07.779Z,8.11
2022-11-24T19:33:34.926Z,8.13
2022-11-24T19:36:03.828Z,8.17
2022-11-24T19:38:32.114Z,8.20
2022-11-24T19:41:09.437Z,8.29
2022-11-24T19:43:36.143Z,8.37
2022-11-24T19:46:10.641Z,8.36
2022-11-24T19:48:43.161Z,8.51
2022-11-24T19:51:15.098Z,8.58
2022-11-24T19:53:41.760Z,8.66
2022-11-24T19:56:11.637Z,8.71
2022-11-24T19:58:38.923Z,8.77
2022-11-24T20:01:16.409Z,8.81
2022-11-24T20:03:44.297Z,8.85
2022-11-24T20:06:13.098Z,8.89
2022-11-24T20:08:40.783Z,8.87
2022-11-24T20:11:16.499Z,8.94
2022-11-24T20:13:45.143Z,8.91
2022-11-24T20:16:14.599Z,8.89
2022-11-24T20:18:44.572Z,8.85
2022-11-24T20:21:21.652Z,8.79
2022-11-24T20:23:55.165Z,8.69
2022-11-24T20:26:23.244Z,8.58
2022-11-24T20:28:51.549Z,8.46
2022-11-24T20:31:21.760Z,8.36
2022-11-24T20:33:48.151Z,8.38
2022-11-24T20:36:18.424Z,8.17
2022-11-24T20:38:45.271Z,8.17
2022-11-24T20:41:20.229Z,7.99
2022-11-24T20:43:47.401Z,7.87
2022-11-24T20:46:16.908Z,7.80
2022-11-24T20:48:44.092Z,7.72
2022-11-24T20:51:13.372Z,7.66
2022-11-24T20:53:40.678Z,7.57
2022-11-24T20:56:10.875Z,7.45
2022-11-24T20:58:37.688Z,7.56
2022-11-24T21:01:09.842Z,7.40
2022-11-24T21:03:42.576Z,7.32
2022-11-24T21:06:10.692Z,7.23
2022-11-24T21:08:38.970Z,7.16
2022-11-24T21:11:07.344Z,7.09
2022-11-24T21:13:35.333Z,7.04
2022-11-24T21:16:18.260Z,6.98
2022-11-24T21:18:46.861Z,6.90
2022-11-24T21:21:14.471Z,6.85
2022-11-24T21:23:40.886Z,6.80
2022-11-24T21:26:11.670Z,6.74
2022-11-24T21:28:42.020Z,6.69
2022-11-24T21:31:14.660Z,6.68
2022-11-24T21:33:43.059Z,6.64
2022-11-24T21:36:09.559Z,6.59
2022-11-24T21:38:36.123Z,6.58
2022-11-24T21:41:05.557Z,6.56
2022-11-24T21:43:32.937Z,6.57
2022-11-24T21:46:03.478Z,6.57
2022-11-24T21:48:31.241Z,6.52
2022-11-24T21:50:59.499Z,6.49
2022-11-24T21:53:26.861Z,6.45
2022-11-24T21:55:58.176Z,6.39
2022-11-24T21:58:25.556Z,6.32
2022-11-24T22:00:52.871Z,6.25
2022-11-24T22:03:20.483Z,6.17
2022-11-24T22:05:54.295Z,6.12
2022-11-24T22:08:21.569Z,6.05
2022-11-24T22:10:48.218Z,5.98
2022-11-24T22:13:15.066Z,5.92
2022-11-24T22:15:41.538Z,5.86
2022-11-24T22:18:08.103Z,5.80
2022-11-24T22:20:35.363Z,5.75
2022-11-24T22:23:01.885Z,5.68
2022-11-24T22:25:28.290Z,5.65
2022-11-24T22:27:54.738Z,5.60
2022-11-24T22:30:21.177Z,5.58
2022-11-24T22:32:47.597Z,5.55
2022-11-24T22:35:14.129Z,5.50
2022-11-24T22:37:40.517Z,5.46
2022-11-24T22:40:07.880Z,5.41
2022-11-24T22:42:34.325Z,5.34
2022-11-24T22:45:00.689Z,5.35
2022-11-24T22:47:27.397Z,5.32
2022-11-24T22:49:53.880Z,5.28
2022-11-24T22:52:20.285Z,5.25
2022-11-24T22:54:46.774Z,5.20
2022-11-24T22:57:13.151Z,5.16
2022-11-24T22:59:39.543Z,5.12
2022-11-24T23:02:06.004Z,5.08
2022-11-24T23:04:32.500Z,5.04
2022-11-24T23:06:58.953Z,4.94
2022-11-24T23:09:25.356Z,5.01
2022-11-24T23:11:51.827Z,4.98
2022-11-24T23:14:19.165Z,4.96
2022-11-24T23:16:45.660Z,4.93
2022-11-24T23:19:12.480Z,4.94
2022-11-24T23:21:39.207Z,4.93
2022-11-24T23:24:06.457Z,4.91
2022-11-24T23:26:36.168Z,4.96
2022-11-24T23:29:04.059Z,4.98
2022-11-24T23:31:31.011Z,4.99
2022-11-24T23:34:02.521Z,4.99
2022-11-24T23:36:30.115Z,5.01
2022-11-24T23:39:00.796Z,4.97
2022-11-24T23:41:29.914Z,5.04
2022-11-24T23:43:56.433Z,5.05
2022-11-24T23:46:25.498Z,5.05
2022-11-24T23:48:53.743Z,5.08
2022-11-24T23:51:25.847Z,5.13
2022-11-24T23:53:53.054Z,5.14
2022-11-24T23:56:21.422Z,5.13
2022-11-24T23:58:47.936Z,5.19
